Current Weather

Tri-County Rgnl

Lone Rock, Wisconsin (KLNR)

Report from: Wednesday, April 24, 2024 11:56 PM CDT
Current time: Thursday, April 25, 2024 12:48 AM CDT

Nearby weather – Weather history – Daily summaries
Weather forecast

Temperature2.8°C (37.0°F)
Dew point-2.8°C (27.0°F)
Winds Calm
Visibility10 mi. (16.1 km)
Clouds Sky clear
Altimeter30.29 in.Hg (1026 mB)
Relative humidity67 %
Density altitude-1,823 ft. (-556 m)
Sea-level pressure102.6 kPa (1026 mB, 30.29 in.Hg)
Remarks Fully automated report
Automated weather observing station with precipitation discriminator
Flight conditions Visual Meteorological Conditions
Raw dataKLNR 250456Z AUTO 00000KT 10SM CLR 03/M03 A3029 RMK AO2 SLP256 T00281028
An error has occurred. This application may no longer respond until reloaded. Reload 🗙